createdAt,value
2022-09-07T00:00:08.568Z,9.55
2022-09-07T00:01:13.114Z,9.51
2022-09-07T00:02:16.948Z,9.55
2022-09-07T00:03:20.385Z,9.59
2022-09-07T00:04:24.193Z,9.59
2022-09-07T00:05:28.014Z,9.64
2022-09-07T00:06:32.847Z,9.72
2022-09-07T00:07:36.392Z,9.75
2022-09-07T00:08:45.032Z,9.80
2022-09-07T00:09:48.784Z,9.82
2022-09-07T00:10:58.036Z,9.78
2022-09-07T00:12:05.669Z,9.78
2022-09-07T00:13:10.601Z,9.76
2022-09-07T00:14:14.541Z,9.78
2022-09-07T00:15:18.320Z,9.77
2022-09-07T00:16:26.751Z,9.77
2022-09-07T00:17:30.556Z,9.79
2022-09-07T00:18:34.604Z,9.82
2022-09-07T00:19:38.295Z,9.81
2022-09-07T00:20:45.351Z,9.85
2022-09-07T00:21:55.703Z,9.81
2022-09-07T00:22:59.568Z,9.76
2022-09-07T00:24:06.000Z,9.79
2022-09-07T00:25:09.764Z,9.74
2022-09-07T00:26:17.756Z,9.50
2022-09-07T00:27:22.877Z,9.40
2022-09-07T00:28:27.740Z,9.36
2022-09-07T00:29:36.969Z,9.34
2022-09-07T00:30:44.027Z,9.32
2022-09-07T00:31:51.476Z,9.26
2022-09-07T00:32:54.508Z,9.14
2022-09-07T00:34:00.729Z,9.20
2022-09-07T00:35:05.799Z,9.29
2022-09-07T00:36:11.084Z,9.17
2022-09-07T00:37:15.110Z,9.25
2022-09-07T00:38:18.831Z,9.22
2022-09-07T00:40:35.294Z,9.29
2022-09-07T00:41:38.845Z,9.25
2022-09-07T00:42:42.344Z,9.34
2022-09-07T00:43:52.122Z,9.33
2022-09-07T00:45:17.406Z,9.44
2022-09-07T00:46:30.847Z,9.47
2022-09-07T00:47:54.853Z,9.50
2022-09-07T00:49:02.233Z,9.56
2022-09-07T00:50:21.544Z,9.56
2022-09-07T00:51:31.678Z,9.56
2022-09-07T00:52:36.976Z,9.57
2022-09-07T00:53:47.472Z,9.62
2022-09-07T00:54:54.945Z,9.53
2022-09-07T00:56:01.728Z,9.45
2022-09-07T00:57:06.768Z,9.27
2022-09-07T00:58:13.021Z,9.07
2022-09-07T00:59:23.060Z,9.02
2022-09-07T01:00:35.171Z,9.02
2022-09-07T01:01:39.972Z,9.07
2022-09-07T01:02:44.290Z,9.11
2022-09-07T01:03:51.505Z,9.22
2022-09-07T01:04:59.981Z,9.24
2022-09-07T01:06:19.091Z,9.11
2022-09-07T01:07:22.524Z,9.06
2022-09-07T01:08:27.523Z,8.96
2022-09-07T01:09:31.622Z,8.89
2022-09-07T01:10:39.891Z,8.98
2022-09-07T01:11:47.060Z,9.08
2022-09-07T01:12:52.303Z,9.17
2022-09-07T01:14:00.602Z,9.16
2022-09-07T01:15:06.281Z,9.06
2022-09-07T01:16:35.084Z,9.08
2022-09-07T01:17:47.717Z,9.07
2022-09-07T01:19:19.455Z,9.06
2022-09-07T01:20:45.073Z,9.05
2022-09-07T01:21:56.259Z,9.03
2022-09-07T01:23:23.221Z,9.01
2022-09-07T01:24:43.026Z,8.94
2022-09-07T01:26:13.612Z,9.08
2022-09-07T01:27:35.511Z,9.04
2022-09-07T01:28:38.514Z,9.17
2022-09-07T01:29:51.864Z,9.12
2022-09-07T01:31:26.278Z,9.16
2022-09-07T01:34:27.260Z,9.26
2022-09-07T01:35:46.268Z,9.20
2022-09-07T01:37:10.442Z,9.05
2022-09-07T01:38:27.870Z,9.00
2022-09-07T01:41:04.862Z,8.90
2022-09-07T01:42:14.670Z,8.76
2022-09-07T01:43:24.787Z,8.77
2022-09-07T01:44:41.310Z,8.70
2022-09-07T01:45:48.338Z,8.57
2022-09-07T01:47:03.786Z,8.65
2022-09-07T01:48:11.083Z,8.77
2022-09-07T01:49:18.452Z,8.85
2022-09-07T01:50:27.949Z,8.92
2022-09-07T01:51:36.573Z,9.00
2022-09-07T01:52:57.125Z,9.04
2022-09-07T01:54:14.881Z,9.11
2022-09-07T01:55:36.223Z,9.16
2022-09-07T01:56:42.925Z,9.20
2022-09-07T01:57:54.836Z,9.14
2022-09-07T01:59:05.693Z,9.02
2022-09-07T02:01:45.396Z,8.78
2022-09-07T02:02:59.645Z,8.87
2022-09-07T02:04:25.411Z,8.87
2022-09-07T02:05:32.915Z,8.98
2022-09-07T02:06:52.143Z,9.07
2022-09-07T02:08:07.112Z,9.07
2022-09-07T02:09:17.524Z,9.04
2022-09-07T02:11:43.783Z,9.10
2022-09-07T02:12:59.835Z,9.09
2022-09-07T02:14:28.574Z,9.15
2022-09-07T02:15:42.592Z,9.15
2022-09-07T02:16:52.439Z,9.19
2022-09-07T02:18:03.426Z,9.22
2022-09-07T02:19:13.567Z,9.27
2022-09-07T02:21:40.298Z,9.29
2022-09-07T02:22:48.017Z,9.06
2022-09-07T02:23:55.674Z,9.00
2022-09-07T02:25:03.410Z,9.01
2022-09-07T02:26:18.724Z,8.95
2022-09-07T02:27:28.475Z,8.94
2022-09-07T02:28:38.202Z,8.86
2022-09-07T02:29:47.136Z,8.86
2022-09-07T02:30:51.091Z,8.91
2022-09-07T02:31:56.381Z,8.79
2022-09-07T02:33:00.434Z,8.75
2022-09-07T02:34:04.669Z,8.72
2022-09-07T02:35:10.420Z,8.70
2022-09-07T02:36:18.756Z,8.60
2022-09-07T02:37:23.334Z,8.63
2022-09-07T02:38:27.888Z,8.55
2022-09-07T02:39:31.643Z,8.44
2022-09-07T02:40:35.521Z,8.39
2022-09-07T02:41:43.615Z,8.19
2022-09-07T02:42:50.444Z,8.24
2022-09-07T02:43:54.008Z,8.33
2022-09-07T02:44:58.050Z,8.35
2022-09-07T02:46:11.310Z,8.36
2022-09-07T02:47:34.604Z,8.41
2022-09-07T02:48:46.168Z,8.42
2022-09-07T02:49:54.486Z,8.41
2022-09-07T02:51:35.423Z,8.26
2022-09-07T02:52:45.149Z,8.24
2022-09-07T02:53:55.253Z,8.24
2022-09-07T02:55:37.177Z,8.31
2022-09-07T02:56:44.626Z,8.25
2022-09-07T02:57:57.816Z,8.37
2022-09-07T02:59:20.541Z,8.40
2022-09-07T03:00:26.969Z,8.40
2022-09-07T03:01:39.592Z,8.28
2022-09-07T03:02:52.764Z,8.35
2022-09-07T03:04:08.862Z,8.21
2022-09-07T03:05:16.186Z,8.23
2022-09-07T03:06:30.033Z,8.37
2022-09-07T03:07:45.192Z,8.41
2022-09-07T03:08:53.155Z,8.41
2022-09-07T03:09:58.771Z,8.50
2022-09-07T03:11:06.562Z,8.44
2022-09-07T03:12:12.767Z,8.49
2022-09-07T03:13:30.369Z,8.36
2022-09-07T03:14:36.667Z,8.12
2022-09-07T03:15:42.497Z,8.16
2022-09-07T03:16:54.338Z,8.21
2022-09-07T03:17:58.943Z,8.22
2022-09-07T03:19:02.583Z,8.24
2022-09-07T03:20:07.616Z,8.30
2022-09-07T03:21:11.919Z,8.28
2022-09-07T03:22:15.445Z,8.25
2022-09-07T03:23:19.427Z,8.22
2022-09-07T03:24:21.867Z,8.12
2022-09-07T03:25:25.831Z,8.24
2022-09-07T03:26:32.611Z,8.28
2022-09-07T03:27:36.361Z,8.36
2022-09-07T03:28:41.185Z,8.35
2022-09-07T03:29:47.677Z,8.32
2022-09-07T03:30:51.537Z,8.28
2022-09-07T03:31:55.207Z,8.31
2022-09-07T03:32:58.605Z,8.28
2022-09-07T03:34:02.936Z,8.20
2022-09-07T03:35:08.737Z,8.15
2022-09-07T03:36:11.927Z,8.08
2022-09-07T03:37:15.956Z,7.96
2022-09-07T03:38:19.397Z,8.09
2022-09-07T03:39:25.413Z,8.14
2022-09-07T03:40:29.916Z,8.30
2022-09-07T03:41:33.838Z,8.22
2022-09-07T03:42:41.582Z,8.24
2022-09-07T03:43:47.223Z,8.30
2022-09-07T03:44:50.067Z,8.49
2022-09-07T03:47:12.268Z,8.79
2022-09-07T03:48:18.855Z,8.77
2022-09-07T03:49:23.883Z,8.82
2022-09-07T03:50:27.609Z,8.93
2022-09-07T03:51:31.706Z,8.97
2022-09-07T03:52:36.313Z,8.96
2022-09-07T03:53:43.459Z,8.99
2022-09-07T03:54:47.381Z,8.99
2022-09-07T03:57:10.642Z,9.01
2022-09-07T03:58:15.374Z,8.88
2022-09-07T03:59:19.026Z,8.87
2022-09-07T04:00:23.946Z,8.81
2022-09-07T04:01:28.453Z,8.89
2022-09-07T04:02:32.103Z,8.98
2022-09-07T04:03:35.011Z,9.05
2022-09-07T04:04:38.357Z,9.06
2022-09-07T04:05:41.716Z,9.12
2022-09-07T04:06:45.254Z,9.20
2022-09-07T04:07:48.962Z,9.21
2022-09-07T04:08:52.749Z,9.32
2022-09-07T04:09:56.270Z,9.33
2022-09-07T04:11:03.797Z,9.32
2022-09-07T04:12:08.312Z,9.33
2022-09-07T04:13:12.573Z,9.31
2022-09-07T04:14:19.606Z,9.35
2022-09-07T04:15:26.428Z,9.40
2022-09-07T04:16:29.694Z,9.44
2022-09-07T04:17:34.713Z,9.37
2022-09-07T04:18:38.123Z,9.38
2022-09-07T04:19:42.538Z,9.28
2022-09-07T04:20:46.345Z,9.34
2022-09-07T04:21:52.176Z,9.35
2022-09-07T04:22:55.861Z,9.19
2022-09-07T04:24:00.651Z,9.22
2022-09-07T04:25:05.953Z,9.12
2022-09-07T04:26:31.854Z,9.07
2022-09-07T04:27:37.317Z,9.21
2022-09-07T04:28:45.132Z,9.31
2022-09-07T04:29:49.057Z,9.44
2022-09-07T04:30:53.209Z,9.49
2022-09-07T04:31:56.902Z,9.46
2022-09-07T04:32:59.324Z,9.29
2022-09-07T04:34:06.312Z,9.15
2022-09-07T04:35:11.857Z,9.21
2022-09-07T04:36:17.751Z,9.24
2022-09-07T04:37:24.048Z,9.43
2022-09-07T04:38:27.477Z,9.65
2022-09-07T04:39:32.852Z,9.95
2022-09-07T04:40:36.663Z,10.04
2022-09-07T04:41:40.456Z,10.05
2022-09-07T04:42:44.149Z,9.88
2022-09-07T04:43:49.243Z,9.66
2022-09-07T04:44:52.686Z,9.44
2022-09-07T04:45:58.664Z,9.68
2022-09-07T04:47:02.441Z,9.72
2022-09-07T04:48:06.505Z,9.70
2022-09-07T04:49:12.235Z,9.77
2022-09-07T04:50:18.002Z,9.75
2022-09-07T04:51:23.285Z,9.78
2022-09-07T04:52:27.000Z,9.85
2022-09-07T04:53:30.581Z,9.99
2022-09-07T04:54:33.799Z,9.93
2022-09-07T04:55:38.176Z,10.06
2022-09-07T04:56:43.138Z,10.58
2022-09-07T04:57:51.422Z,11.84
2022-09-07T04:58:55.654Z,13.31
2022-09-07T04:59:59.157Z,14.02
2022-09-07T05:01:08.290Z,14.17
2022-09-07T05:02:16.363Z,13.68
2022-09-07T05:03:19.757Z,13.29
2022-09-07T05:04:22.242Z,13.04
2022-09-07T05:05:26.609Z,12.62
2022-09-07T05:06:30.952Z,12.40
2022-09-07T05:07:34.874Z,12.40
2022-09-07T05:08:45.049Z,12.43
2022-09-07T05:09:49.640Z,12.38
2022-09-07T05:10:54.918Z,12.24
2022-09-07T05:12:01.314Z,12.29
2022-09-07T05:13:05.241Z,12.24
2022-09-07T05:14:09.060Z,12.27
2022-09-07T05:15:14.337Z,12.40
2022-09-07T05:16:20.998Z,12.38
2022-09-07T05:17:23.545Z,12.26
2022-09-07T05:18:27.724Z,11.85
2022-09-07T05:19:30.690Z,12.04
2022-09-07T05:20:34.416Z,12.07
2022-09-07T05:21:38.051Z,12.06
2022-09-07T05:22:41.833Z,11.96
2022-09-07T05:23:45.929Z,11.95
2022-09-07T05:24:49.955Z,12.20
2022-09-07T05:25:53.496Z,12.53
2022-09-07T05:26:57.207Z,12.81
2022-09-07T05:28:00.910Z,13.24
2022-09-07T05:31:22.934Z,12.78
2022-09-07T05:57:52.184Z,14.85
2022-09-07T05:58:56.006Z,15.03
2022-09-07T06:00:00.082Z,14.83
2022-09-07T06:01:07.319Z,14.76
2022-09-07T06:02:14.442Z,14.49
2022-09-07T06:03:20.319Z,14.50
2022-09-07T06:04:24.187Z,14.27
2022-09-07T06:05:26.516Z,14.49
2022-09-07T06:06:32.195Z,14.73
2022-09-07T06:07:36.172Z,14.96
2022-09-07T06:08:43.106Z,15.41
2022-09-07T06:10:57.230Z,16.50
2022-09-07T06:12:00.725Z,17.08
2022-09-07T06:13:05.279Z,16.98
2022-09-07T06:14:11.192Z,16.48
2022-09-07T06:15:16.081Z,16.17
2022-09-07T06:16:22.858Z,15.79
2022-09-07T06:17:27.612Z,15.77
2022-09-07T06:18:37.587Z,15.75
2022-09-07T06:19:41.352Z,15.48
2022-09-07T06:20:45.002Z,15.27
2022-09-07T06:21:50.339Z,15.36
2022-09-07T06:22:53.129Z,15.54
2022-09-07T06:23:59.478Z,15.50
2022-09-07T06:25:02.742Z,15.57
2022-09-07T06:26:07.270Z,15.48
2022-09-07T06:27:11.327Z,15.44
2022-09-07T06:28:16.300Z,15.39
2022-09-07T06:29:21.044Z,15.68
2022-09-07T06:30:26.276Z,15.92
2022-09-07T06:31:30.026Z,16.26
2022-09-07T06:33:45.193Z,16.46
2022-09-07T06:34:49.439Z,17.02
2022-09-07T06:36:01.762Z,17.52
2022-09-07T06:37:07.620Z,18.19
2022-09-07T06:38:13.257Z,19.54
2022-09-07T06:39:20.138Z,19.61
2022-09-07T06:40:24.288Z,20.18
2022-09-07T06:42:44.252Z,24.04
2022-09-07T06:43:48.397Z,24.93
2022-09-07T06:44:53.036Z,24.52
2022-09-07T06:45:56.126Z,25.38
2022-09-07T06:48:04.387Z,26.98
2022-09-07T06:49:08.218Z,27.79
2022-09-07T06:50:14.357Z,28.53
2022-09-07T06:51:20.030Z,28.10
2022-09-07T06:52:22.900Z,28.89
2022-09-07T06:53:34.597Z,29.54
2022-09-07T06:55:45.256Z,30.14
2022-09-07T06:56:48.621Z,30.81
2022-09-07T06:57:56.576Z,31.58
2022-09-07T06:59:01.511Z,31.36
2022-09-07T07:00:07.994Z,31.39
2022-09-07T07:02:31.767Z,30.90
2022-09-07T07:03:35.283Z,30.67
2022-09-07T07:04:41.135Z,31.02
2022-09-07T07:05:57.501Z,31.50
2022-09-07T07:07:01.528Z,31.81
2022-09-07T07:08:04.955Z,32.43
2022-09-07T07:09:11.514Z,32.15
2022-09-07T07:10:19.742Z,32.03
2022-09-07T07:11:23.349Z,32.39
2022-09-07T07:13:29.917Z,33.40
2022-09-07T07:14:34.676Z,32.75
2022-09-07T07:15:38.125Z,32.19
2022-09-07T07:16:45.691Z,32.15
2022-09-07T07:17:58.085Z,32.82
2022-09-07T07:18:57.765Z,32.12
2022-09-07T07:20:01.343Z,32.07
2022-09-07T07:21:07.417Z,32.24
2022-09-07T07:23:17.111Z,33.82
2022-09-07T07:24:23.809Z,34.15
2022-09-07T07:25:26.982Z,33.90
2022-09-07T07:26:32.116Z,34.00
2022-09-07T07:27:35.238Z,33.92
2022-09-07T07:29:45.033Z,34.76
2022-09-07T07:30:48.454Z,34.10
2022-09-07T07:31:52.762Z,34.01
2022-09-07T07:32:57.300Z,33.31
2022-09-07T07:34:03.256Z,33.11
2022-09-07T07:35:08.184Z,32.28
2022-09-07T07:36:17.072Z,33.06
2022-09-07T07:37:23.708Z,33.68
2022-09-07T07:41:53.782Z,34.21
2022-09-07T07:42:56.571Z,33.34
2022-09-07T07:44:01.859Z,32.68
2022-09-07T07:46:17.729Z,33.60
2022-09-07T07:47:20.132Z,33.42
2022-09-07T07:49:29.090Z,33.59
2022-09-07T07:50:33.385Z,32.80
2022-09-07T07:53:39.640Z,32.84
2022-09-07T07:55:01.183Z,32.02
2022-09-07T07:56:06.704Z,31.90
2022-09-07T07:57:14.181Z,32.49
2022-09-07T07:58:20.177Z,32.60
2022-09-07T07:59:23.775Z,33.23
2022-09-07T08:00:43.806Z,32.10
2022-09-07T08:01:31.608Z,30.92
2022-09-07T08:02:35.818Z,31.39
2022-09-07T08:03:41.727Z,31.53
2022-09-07T08:04:45.735Z,32.02
2022-09-07T08:05:48.620Z,31.85
2022-09-07T08:06:55.186Z,31.10
2022-09-07T08:08:00.850Z,32.02
2022-09-07T08:09:06.015Z,30.95
2022-09-07T08:10:10.777Z,26.90
2022-09-07T08:11:20.826Z,24.48
2022-09-07T08:12:29.124Z,23.43
2022-09-07T08:13:34.864Z,23.26
2022-09-07T08:14:43.070Z,23.92
2022-09-07T08:15:45.931Z,22.26
2022-09-07T08:16:49.388Z,21.89
2022-09-07T08:17:54.291Z,21.73
2022-09-07T08:19:02.182Z,21.54
2022-09-07T08:20:07.343Z,20.95
2022-09-07T08:21:14.977Z,21.08
2022-09-07T08:22:18.299Z,20.98
2022-09-07T08:23:21.846Z,21.06
2022-09-07T08:24:25.225Z,21.41
2022-09-07T08:25:28.144Z,21.02
2022-09-07T08:26:32.415Z,20.70
2022-09-07T08:27:36.626Z,20.28
2022-09-07T08:28:44.542Z,20.24
2022-09-07T08:29:52.595Z,21.05
2022-09-07T08:30:58.010Z,20.74
2022-09-07T08:32:01.015Z,20.78
2022-09-07T08:33:23.280Z,20.30
2022-09-07T08:34:26.904Z,20.12
2022-09-07T08:35:30.520Z,20.27
2022-09-07T08:36:35.484Z,20.97
2022-09-07T08:37:40.072Z,22.69
2022-09-07T08:38:43.127Z,23.40
2022-09-07T08:39:46.879Z,23.54
2022-09-07T08:40:51.908Z,22.26
2022-09-07T08:42:22.463Z,22.73
2022-09-07T08:43:38.822Z,23.22
2022-09-07T08:44:58.509Z,22.54
2022-09-07T08:46:15.715Z,22.43
2022-09-07T08:48:45.090Z,21.86
2022-09-07T08:49:52.358Z,22.73
2022-09-07T08:51:00.989Z,23.58
2022-09-07T08:52:07.767Z,23.49
2022-09-07T08:53:16.108Z,23.16
2022-09-07T08:54:19.137Z,23.54
2022-09-07T08:55:33.446Z,24.20
2022-09-07T08:57:20.161Z,23.70
2022-09-07T08:57:53.343Z,23.76
2022-09-07T08:58:56.816Z,23.75
2022-09-07T09:00:09.656Z,23.96
2022-09-07T09:01:32.218Z,23.89
2022-09-07T09:03:34.960Z,23.42
2022-09-07T09:06:00.747Z,23.23
2022-09-07T09:06:11.265Z,24.02
2022-09-07T09:08:57.691Z,22.16
2022-09-07T09:10:24.614Z,22.77
2022-09-07T09:11:52.458Z,23.41
2022-09-07T09:13:15.629Z,23.79
2022-09-07T09:15:56.353Z,23.91
2022-09-07T09:17:11.386Z,24.20
2022-09-07T09:18:38.423Z,24.51
2022-09-07T09:20:09.351Z,24.58
2022-09-07T09:21:16.295Z,24.12
2022-09-07T09:22:22.636Z,23.75
2022-09-07T09:23:32.997Z,23.89
2022-09-07T09:24:40.351Z,23.80
2022-09-07T09:25:51.254Z,23.76
2022-09-07T09:26:58.306Z,23.74
2022-09-07T09:28:01.945Z,23.90
2022-09-07T09:29:20.244Z,23.28
2022-09-07T09:30:24.938Z,23.35
2022-09-07T09:31:32.291Z,22.94
2022-09-07T09:32:40.569Z,23.14
2022-09-07T09:33:44.121Z,22.54
2022-09-07T09:36:28.700Z,22.03
2022-09-07T09:37:40.243Z,21.39
2022-09-07T09:39:37.551Z,22.56
2022-09-07T09:40:45.151Z,22.96
2022-09-07T09:41:52.493Z,23.31
2022-09-07T09:43:01.503Z,23.47
2022-09-07T09:44:05.337Z,23.72
2022-09-07T09:45:20.285Z,23.98
2022-09-07T09:46:33.137Z,24.35
2022-09-07T09:47:39.625Z,23.07
2022-09-07T09:48:44.600Z,21.89
2022-09-07T09:49:48.638Z,21.44
2022-09-07T09:53:37.892Z,22.55
2022-09-07T09:54:44.050Z,23.15
2022-09-07T09:55:51.389Z,23.30
2022-09-07T09:56:55.069Z,23.10
2022-09-07T10:00:33.829Z,23.08
2022-09-07T10:04:31.754Z,22.88
2022-09-07T10:05:44.762Z,22.17
2022-09-07T10:06:53.494Z,21.81
2022-09-07T10:07:58.941Z,22.19
2022-09-07T10:09:03.359Z,22.57
2022-09-07T10:10:10.404Z,22.70
2022-09-07T10:11:13.677Z,22.07
2022-09-07T10:12:35.662Z,21.91
2022-09-07T10:13:46.878Z,22.50
2022-09-07T10:14:51.867Z,22.77
2022-09-07T10:15:59.119Z,22.87
2022-09-07T10:17:23.922Z,23.10
2022-09-07T10:18:44.387Z,23.30
2022-09-07T10:19:49.472Z,23.08
2022-09-07T10:20:53.952Z,22.74
2022-09-07T10:22:01.470Z,22.84
2022-09-07T10:23:08.408Z,22.42
2022-09-07T10:24:15.016Z,21.68
2022-09-07T10:25:41.804Z,21.64
2022-09-07T10:26:47.052Z,21.79
2022-09-07T10:28:03.130Z,22.01
2022-09-07T10:29:20.206Z,22.30
2022-09-07T10:30:24.450Z,22.55
2022-09-07T10:31:33.308Z,22.56
2022-09-07T10:33:12.855Z,22.54
2022-09-07T10:34:26.984Z,22.78
2022-09-07T10:35:35.329Z,22.93
2022-09-07T10:36:54.881Z,22.79
2022-09-07T10:38:23.341Z,22.56
2022-09-07T10:39:31.668Z,22.58
2022-09-07T10:40:49.339Z,22.33
2022-09-07T10:42:11.674Z,22.52
2022-09-07T10:43:23.013Z,22.28
2022-09-07T10:44:53.122Z,22.35
2022-09-07T10:46:09.758Z,22.66
2022-09-07T10:47:26.354Z,22.09
2022-09-07T10:48:45.442Z,21.49
2022-09-07T10:51:14.324Z,22.06
2022-09-07T10:52:43.476Z,22.01
2022-09-07T10:55:12.169Z,21.73
2022-09-07T10:56:30.139Z,21.88
2022-09-07T10:57:40.518Z,21.76
2022-09-07T10:59:04.999Z,21.29
2022-09-07T11:00:15.573Z,21.24
2022-09-07T11:01:28.681Z,21.32
2022-09-07T11:03:29.802Z,21.76
2022-09-07T11:04:32.933Z,22.10
2022-09-07T11:06:09.187Z,22.36
2022-09-07T11:07:17.728Z,22.73
2022-09-07T11:10:00.206Z,22.62
2022-09-07T11:12:46.469Z,22.20
2022-09-07T11:14:12.176Z,21.66
2022-09-07T11:15:07.912Z,21.62
2022-09-07T11:17:28.585Z,22.32
2022-09-07T11:20:05.976Z,22.32
2022-09-07T11:21:56.015Z,22.42
2022-09-07T11:22:36.867Z,22.44
2022-09-07T11:23:52.107Z,22.24
2022-09-07T11:25:29.691Z,21.94
2022-09-07T11:26:42.807Z,21.65
2022-09-07T11:27:51.252Z,21.60
2022-09-07T11:30:14.947Z,21.76
2022-09-07T11:31:23.608Z,21.62
2022-09-07T11:32:31.551Z,21.87
2022-09-07T11:33:39.316Z,22.04
2022-09-07T11:34:52.093Z,22.08
2022-09-07T11:37:24.528Z,21.79
2022-09-07T11:38:36.753Z,21.48
2022-09-07T11:39:50.236Z,21.88
2022-09-07T11:41:18.405Z,22.03
2022-09-07T11:42:46.271Z,22.29
2022-09-07T11:43:40.108Z,22.39
2022-09-07T11:44:56.686Z,22.26
2022-09-07T11:46:08.880Z,22.13
2022-09-07T11:47:19.032Z,21.64
2022-09-07T11:48:30.458Z,21.74
2022-09-07T11:49:30.431Z,21.42
2022-09-07T11:50:38.448Z,21.21
2022-09-07T11:53:15.033Z,20.98
2022-09-07T11:54:27.552Z,20.94
2022-09-07T11:55:34.751Z,21.50
2022-09-07T11:56:45.564Z,21.69
2022-09-07T11:58:15.249Z,21.48
2022-09-07T11:59:47.652Z,21.46
2022-09-07T12:00:56.827Z,21.73
2022-09-07T12:02:48.274Z,21.54
2022-09-07T12:03:54.477Z,21.49
2022-09-07T12:06:53.178Z,22.01
2022-09-07T12:08:16.457Z,22.02
2022-09-07T12:09:31.085Z,21.92
2022-09-07T12:10:48.706Z,21.74
2022-09-07T12:11:58.898Z,21.87
2022-09-07T12:13:25.520Z,21.68
2022-09-07T12:15:01.339Z,21.75
2022-09-07T12:16:14.742Z,21.74
2022-09-07T12:19:16.296Z,21.22
2022-09-07T12:20:23.350Z,21.22
2022-09-07T12:21:45.580Z,21.42
2022-09-07T12:23:03.657Z,21.54
2022-09-07T12:24:04.807Z,21.38
2022-09-07T12:25:09.014Z,21.41
2022-09-07T12:26:36.948Z,21.48
2022-09-07T12:27:42.642Z,21.46
2022-09-07T12:28:49.899Z,21.43
2022-09-07T12:30:05.486Z,21.63
2022-09-07T12:31:17.991Z,21.56
2022-09-07T12:32:54.330Z,21.42
2022-09-07T12:34:37.601Z,21.37
2022-09-07T12:35:42.638Z,21.35
2022-09-07T12:37:00.046Z,21.45
2022-09-07T12:38:07.069Z,21.14
2022-09-07T12:39:24.828Z,21.15
2022-09-07T12:40:38.474Z,20.97
2022-09-07T12:42:31.834Z,20.99
2022-09-07T12:44:28.551Z,21.31
2022-09-07T12:45:33.962Z,20.96
2022-09-07T12:46:42.297Z,21.06
2022-09-07T12:47:50.752Z,21.06
2022-09-07T12:49:22.134Z,21.28
2022-09-07T12:50:31.002Z,21.49
2022-09-07T12:52:48.372Z,21.16
2022-09-07T12:54:01.795Z,21.21
2022-09-07T12:56:15.534Z,21.38
2022-09-07T12:57:28.979Z,21.37
2022-09-07T12:59:43.062Z,21.08
2022-09-07T13:00:56.300Z,21.16
2022-09-07T13:02:13.803Z,21.01
2022-09-07T13:04:47.921Z,21.27
2022-09-07T13:06:06.991Z,21.38
2022-09-07T13:07:25.996Z,21.44
2022-09-07T13:09:05.586Z,21.54
2022-09-07T13:10:35.346Z,21.43
2022-09-07T13:11:40.847Z,21.46
2022-09-07T13:12:57.733Z,21.30
2022-09-07T13:15:29.589Z,21.78
2022-09-07T13:17:44.494Z,21.84
2022-09-07T13:18:50.135Z,21.86
2022-09-07T13:19:56.569Z,21.87
2022-09-07T13:21:14.916Z,21.79
2022-09-07T13:22:34.176Z,21.63
2022-09-07T13:23:45.469Z,21.32
2022-09-07T13:24:53.666Z,21.37
2022-09-07T13:25:59.821Z,21.33
2022-09-07T13:27:33.816Z,21.71
2022-09-07T13:28:43.712Z,21.86
2022-09-07T13:29:52.312Z,21.58
2022-09-07T13:31:30.463Z,21.12
2022-09-07T13:33:48.631Z,21.25
2022-09-07T13:35:05.483Z,21.54
2022-09-07T13:36:22.333Z,21.53
2022-09-07T13:37:25.833Z,21.28
2022-09-07T13:38:34.034Z,21.23
2022-09-07T13:39:40.808Z,21.37
2022-09-07T13:40:49.029Z,21.38
2022-09-07T13:41:57.473Z,21.34
2022-09-07T13:43:03.182Z,21.28
2022-09-07T13:44:07.258Z,21.61
2022-09-07T13:45:34.661Z,21.59
2022-09-07T13:47:15.936Z,21.35
2022-09-07T13:48:32.033Z,21.24
2022-09-07T13:51:21.083Z,21.35
2022-09-07T13:52:27.789Z,21.48
2022-09-07T13:53:56.225Z,21.20
2022-09-07T13:55:20.750Z,21.24
2022-09-07T13:56:46.643Z,21.08
2022-09-07T13:58:13.970Z,21.26
2022-09-07T13:59:28.923Z,21.11
2022-09-07T14:00:33.072Z,21.21
2022-09-07T14:01:42.591Z,21.32
2022-09-07T14:02:56.829Z,21.30
2022-09-07T14:04:03.509Z,21.39
2022-09-07T14:05:08.325Z,21.38
2022-09-07T14:07:32.732Z,21.38
2022-09-07T14:08:39.731Z,21.32
2022-09-07T14:09:43.441Z,21.47
2022-09-07T14:10:49.268Z,21.33
2022-09-07T14:11:55.912Z,21.31
2022-09-07T14:13:15.373Z,21.41
2022-09-07T14:15:44.342Z,21.61
2022-09-07T14:16:55.579Z,21.34
2022-09-07T14:18:07.798Z,21.20
2022-09-07T14:19:19.816Z,20.89
2022-09-07T14:20:25.815Z,21.08
2022-09-07T14:21:29.335Z,20.96
2022-09-07T14:22:37.097Z,20.86
2022-09-07T14:23:41.004Z,20.78
2022-09-07T14:24:53.900Z,20.83
2022-09-07T14:26:17.816Z,20.88
2022-09-07T14:27:40.541Z,21.01
2022-09-07T14:28:46.550Z,21.18
2022-09-07T14:29:54.943Z,21.04
2022-09-07T14:30:58.876Z,21.06
2022-09-07T14:32:04.386Z,21.22
2022-09-07T14:33:16.738Z,21.36
2022-09-07T14:34:23.660Z,21.35
2022-09-07T14:35:33.653Z,20.96
2022-09-07T14:36:46.148Z,20.76
2022-09-07T14:37:50.596Z,20.65
2022-09-07T14:39:10.542Z,20.86
2022-09-07T14:40:00.588Z,20.83
2022-09-07T14:41:10.442Z,20.49
2022-09-07T14:42:18.644Z,20.58
2022-09-07T14:43:35.130Z,20.66
2022-09-07T14:45:49.571Z,20.92
2022-09-07T14:46:57.163Z,20.88
2022-09-07T14:48:06.956Z,20.90
2022-09-07T14:49:24.489Z,21.00
2022-09-07T14:50:35.493Z,21.02
2022-09-07T14:51:42.224Z,21.00
2022-09-07T14:53:34.145Z,20.84
2022-09-07T14:54:01.245Z,20.88
2022-09-07T14:55:11.178Z,20.77
2022-09-07T14:56:21.351Z,20.48
2022-09-07T14:57:34.025Z,20.59
2022-09-07T14:58:36.473Z,20.75
2022-09-07T14:59:44.813Z,20.58
2022-09-07T15:02:22.761Z,20.72
2022-09-07T15:03:36.062Z,20.76
2022-09-07T15:04:38.598Z,20.71
2022-09-07T15:05:51.692Z,20.66
2022-09-07T15:07:01.730Z,20.79
2022-09-07T15:08:04.023Z,20.80
2022-09-07T15:09:14.416Z,20.61
2022-09-07T15:10:29.907Z,20.69
2022-09-07T15:11:36.897Z,20.78
2022-09-07T15:12:45.752Z,20.90
2022-09-07T15:14:01.568Z,20.81
2022-09-07T15:15:26.693Z,20.56
2022-09-07T15:16:37.620Z,20.56
2022-09-07T15:17:43.980Z,20.57
2022-09-07T15:19:03.278Z,20.45
2022-09-07T15:45:17.013Z,20.04
2022-09-07T15:46:20.633Z,20.04
2022-09-07T15:47:47.025Z,20.13
2022-09-07T15:48:34.337Z,20.16
2022-09-07T15:49:41.097Z,20.19
2022-09-07T15:50:43.634Z,20.15
2022-09-07T15:52:54.278Z,19.95
2022-09-07T15:54:14.300Z,19.97
2022-09-07T15:55:02.790Z,19.99
2022-09-07T15:56:07.139Z,20.02
2022-09-07T15:58:16.356Z,20.00
2022-09-07T15:59:19.885Z,19.96
2022-09-07T16:01:54.647Z,19.82
2022-09-07T16:03:08.404Z,19.71
2022-09-07T16:03:58.405Z,19.55
2022-09-07T16:06:16.079Z,19.51
2022-09-07T16:07:20.198Z,19.40
2022-09-07T16:08:26.371Z,19.47
2022-09-07T16:09:30.004Z,19.52
2022-09-07T16:10:33.040Z,19.51
2022-09-07T16:11:37.468Z,19.48
2022-09-07T16:13:09.605Z,19.46
2022-09-07T16:14:01.750Z,19.38
2022-09-07T16:15:05.985Z,19.28
2022-09-07T16:16:09.845Z,19.15
2022-09-07T16:17:35.627Z,19.05
2022-09-07T16:18:21.496Z,18.97
2022-09-07T16:19:25.844Z,18.86
2022-09-07T16:20:32.443Z,18.83
2022-09-07T16:21:41.305Z,18.80
2022-09-07T16:23:52.945Z,18.63
2022-09-07T16:24:56.050Z,18.57
2022-09-07T16:26:01.578Z,18.54
2022-09-07T16:27:05.603Z,18.46
2022-09-07T16:28:08.758Z,18.35
2022-09-07T16:29:12.773Z,18.25
2022-09-07T16:30:15.871Z,18.21
2022-09-07T16:31:26.557Z,18.16
2022-09-07T16:32:45.983Z,18.09
2022-09-07T16:33:37.127Z,18.00
2022-09-07T16:34:44.942Z,17.97
2022-09-07T16:36:03.297Z,17.93
2022-09-07T16:37:08.312Z,17.90
2022-09-07T16:39:18.424Z,17.73
2022-09-07T16:40:22.604Z,17.65
2022-09-07T16:41:32.311Z,17.71
2022-09-07T16:42:37.680Z,17.69
2022-09-07T16:43:41.411Z,17.67
2022-09-07T16:44:43.962Z,17.65
2022-09-07T16:46:05.074Z,17.58
2022-09-07T16:46:56.687Z,17.59
2022-09-07T16:48:01.283Z,17.57
2022-09-07T16:49:06.559Z,17.52
2022-09-07T16:50:12.847Z,17.52
2022-09-07T16:51:19.984Z,17.49
2022-09-07T16:52:22.892Z,17.41
2022-09-07T16:53:29.835Z,17.33
2022-09-07T16:54:33.630Z,17.31
2022-09-07T16:55:38.360Z,17.32
2022-09-07T16:56:45.265Z,17.33
2022-09-07T16:59:00.048Z,17.23
2022-09-07T17:00:08.472Z,17.17
2022-09-07T17:01:15.553Z,17.13
2022-09-07T17:02:18.399Z,17.12
2022-09-07T17:03:25.031Z,17.06
2022-09-07T17:04:30.611Z,17.04
2022-09-07T17:05:40.601Z,17.00
2022-09-07T17:06:44.008Z,16.93
2022-09-07T17:07:49.555Z,16.84
2022-09-07T17:08:52.946Z,16.76
2022-09-07T17:09:59.693Z,16.74
2022-09-07T17:36:23.969Z,16.01
2022-09-07T17:37:27.724Z,16.02
2022-09-07T17:39:39.468Z,16.03
2022-09-07T17:40:43.483Z,16.04
2022-09-07T17:41:53.783Z,15.97
2022-09-07T17:44:03.651Z,15.98
2022-09-07T17:45:08.322Z,16.00
2022-09-07T17:46:16.457Z,15.92